Terminal Aerodrome Forecast
Issued by NWS

Home | Current Version | Previous Version | Text Only | Print | Product List | Glossary On
Versions: 1 2 3 4 5 6 7 8 9 10 11 12 13 14 15
000
FTUS46 KSEW 232320
TAFBFI
TAF
KBFI 232320Z 2400/2424 16012KT P6SM -SHRA SCT030 OVC050
      TEMPO 2402/2406 5SM -SHRA BR BKN030 OVC050
     FM240600 16006KT P6SM VCSH SCT030 BKN045 OVC070
     FM241700 34005KT P6SM VCSH SCT030 BKN050=

USA.gov is the U.S. government's official web portal to all federal, state and local government web resources and services.